sensor_id;sensor_type;location;lat;lon;timestamp;pressure;altitude;pressure_sealevel;temperature;humidity
67397;BME280;57728;50.448;18.824;2023-04-20T00:00:15;98050.03;;;8.74;76.25
67397;BME280;57728;50.448;18.824;2023-04-20T00:02:17;98052.75;;;8.74;76.44
67397;BME280;57728;50.448;18.824;2023-04-20T00:04:19;98011.94;;;8.55;76.36
67397;BME280;57728;50.448;18.824;2023-04-20T00:06:21;98052.06;;;8.78;76.52
67397;BME280;57728;50.448;18.824;2023-04-20T00:08:25;98049.97;;;8.81;76.43
67397;BME280;57728;50.448;18.824;2023-04-20T00:10:26;98020.44;;;8.66;76.44
67397;BME280;57728;50.448;18.824;2023-04-20T00:12:29;98030.41;;;8.72;76.38
67397;BME280;57728;50.448;18.824;2023-04-20T00:14:30;97989.22;;;8.50;76.30
67397;BME280;57728;50.448;18.824;2023-04-20T00:16:32;98051.19;;;8.85;76.33
67397;BME280;57728;50.448;18.824;2023-04-20T00:18:34;98030.59;;;8.77;76.50
67397;BME280;57728;50.448;18.824;2023-04-20T00:20:35;98053.28;;;8.89;76.39
67397;BME280;57728;50.448;18.824;2023-04-20T00:22:37;98016.16;;;8.76;76.47
67397;BME280;57728;50.448;18.824;2023-04-20T00:24:39;98044.84;;;8.98;76.37
67397;BME280;57728;50.448;18.824;2023-04-20T00:26:40;98046.50;;;8.99;76.15
67397;BME280;57728;50.448;18.824;2023-04-20T00:28:42;98041.69;;;9.01;76.34
67397;BME280;57728;50.448;18.824;2023-04-20T00:30:44;98030.03;;;8.93;76.29
67397;BME280;57728;50.448;18.824;2023-04-20T00:32:45;98011.91;;;8.87;76.22
67397;BME280;57728;50.448;18.824;2023-04-20T00:34:47;98004.22;;;8.84;76.36
67397;BME280;57728;50.448;18.824;2023-04-20T00:36:51;97998.97;;;8.89;76.11
67397;BME280;57728;50.448;18.824;2023-04-20T00:38:52;97943.47;;;8.53;75.83
67397;BME280;57728;50.448;18.824;2023-04-20T00:40:55;98044.13;;;9.09;75.90
67397;BME280;57728;50.448;18.824;2023-04-20T00:43:11;97991.91;;;8.82;76.01
67397;BME280;57728;50.448;18.824;2023-04-20T00:45:13;98031.84;;;9.06;76.11
67397;BME280;57728;50.448;18.824;2023-04-20T00:47:15;98034.56;;;9.06;76.06
67397;BME280;57728;50.448;18.824;2023-04-20T00:49:17;98019.56;;;8.97;76.16
67397;BME280;57728;50.448;18.824;2023-04-20T00:51:21;98029.34;;;9.05;76.20
67397;BME280;57728;50.448;18.824;2023-04-20T00:53:23;98029.72;;;9.08;76.44
67397;BME280;57728;50.448;18.824;2023-04-20T00:55:25;97984.41;;;8.84;76.17
67397;BME280;57728;50.448;18.824;2023-04-20T00:57:28;98004.31;;;8.96;76.19
67397;BME280;57728;50.448;18.824;2023-04-20T00:59:31;98029.28;;;9.11;76.37
67397;BME280;57728;50.448;18.824;2023-04-20T01:01:33;98034.47;;;9.13;76.36
67397;BME280;57728;50.448;18.824;2023-04-20T01:03:35;98041.13;;;9.17;76.39
67397;BME280;57728;50.448;18.824;2023-04-20T01:05:36;98032.75;;;9.19;76.30
67397;BME280;57728;50.448;18.824;2023-04-20T01:07:39;98036.31;;;9.19;76.19
67397;BME280;57728;50.448;18.824;2023-04-20T01:09:40;98030.03;;;9.19;76.11
67397;BME280;57728;50.448;18.824;2023-04-20T01:11:42;98022.97;;;9.18;76.23
67397;BME280;57728;50.448;18.824;2023-04-20T01:13:44;98015.41;;;9.20;76.32
67397;BME280;57728;50.448;18.824;2023-04-20T01:15:46;97996.31;;;9.08;76.22
67397;BME280;57728;50.448;18.824;2023-04-20T01:17:48;98008.72;;;9.22;76.26
67397;BME280;57728;50.448;18.824;2023-04-20T01:19:51;97989.22;;;9.07;76.28
67397;BME280;57728;50.448;18.824;2023-04-20T01:21:52;97960.97;;;8.89;76.16
67397;BME280;57728;50.448;18.824;2023-04-20T01:23:53;98023.97;;;9.23;76.19
67397;BME280;57728;50.448;18.824;2023-04-20T01:25:56;97990.88;;;9.08;76.31
67397;BME280;57728;50.448;18.824;2023-04-20T01:27:58;97973.19;;;8.99;75.92
67397;BME280;57728;50.448;18.824;2023-04-20T01:29:59;98003.09;;;9.17;76.01
67397;BME280;57728;50.448;18.824;2023-04-20T01:32:00;98015.59;;;9.25;75.82
67397;BME280;57728;50.448;18.824;2023-04-20T01:34:02;98013.09;;;9.23;75.98
67397;BME280;57728;50.448;18.824;2023-04-20T01:36:05;97991.47;;;9.10;75.94
67397;BME280;57728;50.448;18.824;2023-04-20T01:38:07;97999.16;;;9.13;75.72
67397;BME280;57728;50.448;18.824;2023-04-20T01:40:12;98022.88;;;9.24;75.91
67397;BME280;57728;50.448;18.824;2023-04-20T01:42:14;97970.50;;;8.92;75.82
67397;BME280;57728;50.448;18.824;2023-04-20T01:44:15;98018.53;;;9.23;76.08
67397;BME280;57728;50.448;18.824;2023-04-20T01:46:18;98019.13;;;9.25;75.97
67397;BME280;57728;50.448;18.824;2023-04-20T01:48:21;98021.03;;;9.25;75.96
67397;BME280;57728;50.448;18.824;2023-04-20T01:50:22;97996.31;;;9.08;75.96
67397;BME280;57728;50.448;18.824;2023-04-20T01:52:26;97988.38;;;9.06;75.80
67397;BME280;57728;50.448;18.824;2023-04-20T01:54:28;98001.75;;;9.08;76.00
67397;BME280;57728;50.448;18.824;2023-04-20T01:56:29;98025.78;;;9.29;76.22
67397;BME280;57728;50.448;18.824;2023-04-20T01:58:33;98032.44;;;9.34;76.01
67397;BME280;57728;50.448;18.824;2023-04-20T02:00:34;97996.03;;;9.16;76.02
67397;BME280;57728;50.448;18.824;2023-04-20T02:02:35;98026.09;;;9.40;75.86
67397;BME280;57728;50.448;18.824;2023-04-20T02:04:37;97965.03;;;8.99;75.66
67397;BME280;57728;50.448;18.824;2023-04-20T02:06:38;97994.72;;;9.19;75.55
67397;BME280;57728;50.448;18.824;2023-04-20T02:08:43;97900.69;;;8.55;75.20
67397;BME280;57728;50.448;18.824;2023-04-20T02:10:45;98007.03;;;9.21;75.46
67397;BME280;57728;50.448;18.824;2023-04-20T02:12:48;97958.38;;;8.94;75.79
67397;BME280;57728;50.448;18.824;2023-04-20T02:14:50;97983.56;;;9.08;75.41
67397;BME280;57728;50.448;18.824;2023-04-20T02:16:52;97958.38;;;8.94;75.13
67397;BME280;57728;50.448;18.824;2023-04-20T02:18:54;98036.16;;;9.39;75.29
67397;BME280;57728;50.448;18.824;2023-04-20T02:20:56;97931.81;;;8.78;75.47
67397;BME280;57728;50.448;18.824;2023-04-20T02:22:58;98002.81;;;9.25;75.39
67397;BME280;57728;50.448;18.824;2023-04-20T02:25:00;97990.78;;;9.15;75.58
67397;BME280;57728;50.448;18.824;2023-04-20T02:27:02;97979.13;;;9.14;75.45
67397;BME280;57728;50.448;18.824;2023-04-20T02:29:04;97983.63;;;9.20;75.46
67397;BME280;57728;50.448;18.824;2023-04-20T02:31:07;98000.28;;;9.31;75.25
67397;BME280;57728;50.448;18.824;2023-04-20T02:33:09;97961.22;;;9.06;74.91
67397;BME280;57728;50.448;18.824;2023-04-20T02:35:11;98032.16;;;9.42;75.08
67397;BME280;57728;50.448;18.824;2023-04-20T02:37:12;98035.31;;;9.39;75.13
67397;BME280;57728;50.448;18.824;2023-04-20T02:39:15;97985.44;;;9.08;75.26
67397;BME280;57728;50.448;18.824;2023-04-20T02:41:18;97980.47;;;9.05;75.44
67397;BME280;57728;50.448;18.824;2023-04-20T02:43:19;98035.31;;;9.39;75.25
67397;BME280;57728;50.448;18.824;2023-04-20T02:45:21;97994.97;;;9.17;75.35
67397;BME280;57728;50.448;18.824;2023-04-20T02:47:23;97920.78;;;8.73;75.38
67397;BME280;57728;50.448;18.824;2023-04-20T02:49:26;98037.13;;;9.45;75.31
67397;BME280;57728;50.448;18.824;2023-04-20T02:51:28;97941.06;;;8.95;75.18
67397;BME280;57728;50.448;18.824;2023-04-20T02:53:30;98008.22;;;9.32;75.21
67397;BME280;57728;50.448;18.824;2023-04-20T02:56:01;98032.06;;;9.49;75.24
67397;BME280;57728;50.448;18.824;2023-04-20T02:58:13;97982.66;;;9.15;75.04
67397;BME280;57728;50.448;18.824;2023-04-20T03:00:35;98033.97;;;9.48;75.02
67397;BME280;57728;50.448;18.824;2023-04-20T03:02:40;97934.22;;;8.86;74.78
67397;BME280;57728;50.448;18.824;2023-04-20T03:04:42;98005.78;;;9.24;75.01
67397;BME280;57728;50.448;18.824;2023-04-20T03:06:54;98025.72;;;9.36;74.96
67397;BME280;57728;50.448;18.824;2023-04-20T03:09:02;98027.78;;;9.41;75.32
67397;BME280;57728;50.448;18.824;2023-04-20T03:11:23;97996.63;;;9.18;75.08
67397;BME280;57728;50.448;18.824;2023-04-20T03:13:25;97910.25;;;8.58;75.04
67397;BME280;57728;50.448;18.824;2023-04-20T03:15:30;98006.16;;;9.27;75.11
67397;BME280;57728;50.448;18.824;2023-04-20T03:17:50;98038.63;;;9.41;74.78
67397;BME280;57728;50.448;18.824;2023-04-20T03:19:54;98036.97;;;9.40;75.13
67397;BME280;57728;50.448;18.824;2023-04-20T03:21:56;97991.66;;;9.15;75.06
67397;BME280;57728;50.448;18.824;2023-04-20T03:23:58;98032.59;;;9.39;75.13
67397;BME280;57728;50.448;18.824;2023-04-20T03:26:01;97961.78;;;8.90;75.04
67397;BME280;57728;50.448;18.824;2023-04-20T03:28:16;98014.38;;;9.21;75.18
67397;BME280;57728;50.448;18.824;2023-04-20T03:30:17;98032.88;;;9.31;74.99
67397;BME280;57728;50.448;18.824;2023-04-20T03:32:23;98039.81;;;9.26;75.15
67397;BME280;57728;50.448;18.824;2023-04-20T03:34:25;98046.28;;;9.25;75.37
67397;BME280;57728;50.448;18.824;2023-04-20T03:36:28;98040.03;;;9.25;75.45
67397;BME280;57728;50.448;18.824;2023-04-20T03:38:31;98022.19;;;9.10;75.88
67397;BME280;57728;50.448;18.824;2023-04-20T03:40:32;98046.47;;;9.31;75.35
67397;BME280;57728;50.448;18.824;2023-04-20T03:42:34;98050.81;;;9.32;75.34
67397;BME280;57728;50.448;18.824;2023-04-20T03:44:37;98050.81;;;9.32;75.32
67397;BME280;57728;50.448;18.824;2023-04-20T03:46:39;97962.38;;;8.67;75.06
67397;BME280;57728;50.448;18.824;2023-04-20T03:48:41;98007.88;;;8.97;75.24
67397;BME280;57728;50.448;18.824;2023-04-20T03:50:43;98040.09;;;9.18;75.32
67397;BME280;57728;50.448;18.824;2023-04-20T03:52:44;98062.31;;;9.34;75.43
67397;BME280;57728;50.448;18.824;2023-04-20T03:54:45;98051.22;;;9.35;75.35
67397;BME280;57728;50.448;18.824;2023-04-20T03:56:50;98062.09;;;9.35;75.21
67397;BME280;57728;50.448;18.824;2023-04-20T03:58:52;98059.59;;;9.34;75.13
67397;BME280;57728;50.448;18.824;2023-04-20T04:01:04;97892.50;;;8.30;75.05
67397;BME280;57728;50.448;18.824;2023-04-20T04:03:13;98027.41;;;9.12;75.29
67397;BME280;57728;50.448;18.824;2023-04-20T04:05:15;98008.25;;;9.00;75.17
67397;BME280;57728;50.448;18.824;2023-04-20T04:07:16;97988.44;;;9.00;75.16
67397;BME280;57728;50.448;18.824;2023-04-20T04:09:19;98025.06;;;9.16;75.00
67397;BME280;57728;50.448;18.824;2023-04-20T04:11:20;98050.72;;;9.45;74.92
67397;BME280;57728;50.448;18.824;2023-04-20T04:13:21;98062.19;;;9.47;75.02
67397;BME280;57728;50.448;18.824;2023-04-20T04:15:24;98059.47;;;9.47;74.95
67397;BME280;57728;50.448;18.824;2023-04-20T04:17:32;98061.38;;;9.46;75.03
67397;BME280;57728;50.448;18.824;2023-04-20T04:19:33;98017.31;;;9.19;74.96
67397;BME280;57728;50.448;18.824;2023-04-20T04:21:37;98031.81;;;9.32;75.12
67397;BME280;57728;50.448;18.824;2023-04-20T04:23:39;98059.06;;;9.50;74.93
67397;BME280;57728;50.448;18.824;2023-04-20T04:25:48;98038.47;;;9.36;74.88
67397;BME280;57728;50.448;18.824;2023-04-20T04:27:52;98027.38;;;9.37;74.89
67397;BME280;57728;50.448;18.824;2023-04-20T04:29:54;98054.38;;;9.57;74.77
67397;BME280;57728;50.448;18.824;2023-04-20T04:31:57;98022.56;;;9.39;74.74
67397;BME280;57728;50.448;18.824;2023-04-20T04:33:59;98021.56;;;9.34;74.51
67397;BME280;57728;50.448;18.824;2023-04-20T04:36:05;98055.44;;;9.56;74.77
67397;BME280;57728;50.448;18.824;2023-04-20T04:38:08;98059.81;;;9.57;74.41
67397;BME280;57728;50.448;18.824;2023-04-20T04:40:11;98026.38;;;9.32;74.58
67397;BME280;57728;50.448;18.824;2023-04-20T04:42:13;98001.84;;;9.20;74.79
67397;BME280;57728;50.448;18.824;2023-04-20T04:44:16;98024.06;;;9.35;74.75
67397;BME280;57728;50.448;18.824;2023-04-20T04:46:19;98061.63;;;9.63;74.77
67397;BME280;57728;50.448;18.824;2023-04-20T04:48:21;97820.84;;;8.13;74.57
67397;BME280;57728;50.448;18.824;2023-04-20T04:50:23;98077.44;;;9.73;74.64
67397;BME280;57728;50.448;18.824;2023-04-20T04:52:26;98077.59;;;9.78;74.54
67397;BME280;57728;50.448;18.824;2023-04-20T04:54:28;98062.16;;;9.72;74.30
67397;BME280;57728;50.448;18.824;2023-04-20T04:56:29;98028.94;;;9.52;74.34
67397;BME280;57728;50.448;18.824;2023-04-20T04:58:31;98010.88;;;9.39;74.45
67397;BME280;57728;50.448;18.824;2023-04-20T05:00:32;98079.13;;;9.93;74.78
67397;BME280;57728;50.448;18.824;2023-04-20T05:02:34;98059.31;;;9.86;74.45
67397;BME280;57728;50.448;18.824;2023-04-20T05:04:36;98018.66;;;9.72;74.08
67397;BME280;57728;50.448;18.824;2023-04-20T05:06:37;98051.69;;;9.94;73.98
67397;BME280;57728;50.448;18.824;2023-04-20T05:08:39;98078.06;;;10.12;73.83
67397;BME280;57728;50.448;18.824;2023-04-20T05:10:41;98060.16;;;10.05;73.91
67397;BME280;57728;50.448;18.824;2023-04-20T05:12:42;98012.72;;;9.82;73.70
67397;BME280;57728;50.448;18.824;2023-04-20T05:14:44;98074.59;;;10.24;73.51
67397;BME280;57728;50.448;18.824;2023-04-20T05:16:46;98076.22;;;10.25;73.54
67397;BME280;57728;50.448;18.824;2023-04-20T05:18:48;98047.53;;;10.10;73.47
67397;BME280;57728;50.448;18.824;2023-04-20T05:20:49;98045.50;;;10.06;73.19
67397;BME280;57728;50.448;18.824;2023-04-20T05:22:51;98084.56;;;10.30;73.41
67397;BME280;57728;50.448;18.824;2023-04-20T05:24:52;98057.88;;;10.20;73.79
67397;BME280;57728;50.448;18.824;2023-04-20T05:26:53;98082.06;;;10.47;73.53
67397;BME280;57728;50.448;18.824;2023-04-20T05:28:55;98091.38;;;10.58;73.43
67397;BME280;57728;50.448;18.824;2023-04-20T05:30:57;97908.72;;;9.50;72.97
67397;BME280;57728;50.448;18.824;2023-04-20T05:32:58;98093.66;;;10.73;72.44
67397;BME280;57728;50.448;18.824;2023-04-20T05:35:00;98028.41;;;10.36;72.38
67397;BME280;57728;50.448;18.824;2023-04-20T05:37:03;97988.53;;;10.11;72.06
67397;BME280;57728;50.448;18.824;2023-04-20T05:39:05;98046.00;;;10.52;72.12
67397;BME280;57728;50.448;18.824;2023-04-20T05:41:07;98096.22;;;10.86;71.69
67397;BME280;57728;50.448;18.824;2023-04-20T05:43:08;98072.34;;;10.70;71.80
67397;BME280;57728;50.448;18.824;2023-04-20T05:45:10;98093.50;;;10.86;71.76
67397;BME280;57728;50.448;18.824;2023-04-20T05:47:12;98077.31;;;10.73;71.39
67397;BME280;57728;50.448;18.824;2023-04-20T05:49:13;98099.53;;;10.88;70.96
67397;BME280;57728;50.448;18.824;2023-04-20T05:51:15;98100.28;;;10.95;71.52
67397;BME280;57728;50.448;18.824;2023-04-20T05:53:17;98077.97;;;10.87;71.15
67397;BME280;57728;50.448;18.824;2023-04-20T05:55:19;98100.91;;;11.09;70.99
67397;BME280;57728;50.448;18.824;2023-04-20T05:57:20;98049.31;;;10.84;71.07
67397;BME280;57728;50.448;18.824;2023-04-20T05:59:25;98043.88;;;10.84;70.79
67397;BME280;57728;50.448;18.824;2023-04-20T06:01:26;98111.06;;;11.32;71.07
67397;BME280;57728;50.448;18.824;2023-04-20T06:03:28;98110.84;;;11.46;70.75
67397;BME280;57728;50.448;18.824;2023-04-20T06:05:31;98066.00;;;11.30;70.39
67397;BME280;57728;50.448;18.824;2023-04-20T06:07:32;98080.03;;;11.57;70.14
67397;BME280;57728;50.448;18.824;2023-04-20T06:09:33;98059.03;;;11.46;70.03
67397;BME280;57728;50.448;18.824;2023-04-20T06:11:35;98026.91;;;11.36;69.34
67397;BME280;57728;50.448;18.824;2023-04-20T06:13:36;98116.69;;;11.97;69.17
67397;BME280;57728;50.448;18.824;2023-04-20T06:15:38;98113.50;;;12.00;68.96
67397;BME280;57728;50.448;18.824;2023-04-20T06:17:40;98117.16;;;12.06;68.91
67397;BME280;57728;50.448;18.824;2023-04-20T06:19:41;98067.09;;;11.76;68.38
67397;BME280;57728;50.448;18.824;2023-04-20T06:21:42;98114.56;;;12.11;68.37
67397;BME280;57728;50.448;18.824;2023-04-20T06:23:44;98120.84;;;12.11;68.12
67397;BME280;57728;50.448;18.824;2023-04-20T06:25:45;98009.34;;;11.32;67.75
67397;BME280;57728;50.448;18.824;2023-04-20T06:27:47;98122.03;;;12.03;67.89
67397;BME280;57728;50.448;18.824;2023-04-20T06:29:49;98070.44;;;11.66;67.85
67397;BME280;57728;50.448;18.824;2023-04-20T06:31:50;98085.94;;;11.66;68.07
67397;BME280;57728;50.448;18.824;2023-04-20T06:33:51;98128.78;;;11.89;68.13
67397;BME280;57728;50.448;18.824;2023-04-20T06:35:53;98132.56;;;11.88;68.34
67397;BME280;57728;50.448;18.824;2023-04-20T06:37:56;97936.22;;;10.70;68.13
67397;BME280;57728;50.448;18.824;2023-04-20T06:39:57;98131.72;;;11.87;68.35
67397;BME280;57728;50.448;18.824;2023-04-20T06:42:00;98035.56;;;11.33;68.20
67397;BME280;57728;50.448;18.824;2023-04-20T06:44:02;98093.53;;;11.76;68.32
67397;BME280;57728;50.448;18.824;2023-04-20T06:46:04;98032.00;;;11.32;68.26
67397;BME280;57728;50.448;18.824;2023-04-20T06:48:06;98030.09;;;11.45;68.25
67397;BME280;57728;50.448;18.824;2023-04-20T06:50:09;98088.00;;;11.94;68.04
67397;BME280;57728;50.448;18.824;2023-04-20T06:52:11;98099.03;;;11.99;67.89
67397;BME280;57728;50.448;18.824;2023-04-20T06:54:13;98123.19;;;12.31;67.71
67397;BME280;57728;50.448;18.824;2023-04-20T06:56:14;98005.00;;;11.66;67.13
67397;BME280;57728;50.448;18.824;2023-04-20T06:58:15;98058.81;;;11.95;66.95
67397;BME280;57728;50.448;18.824;2023-04-20T07:00:17;98041.25;;;11.79;66.54
67397;BME280;57728;50.448;18.824;2023-04-20T07:02:19;98078.88;;;12.00;66.54
67397;BME280;57728;50.448;18.824;2023-04-20T07:04:20;98039.47;;;11.73;66.88
67397;BME280;57728;50.448;18.824;2023-04-20T07:06:22;97984.59;;;11.45;66.79
67397;BME280;57728;50.448;18.824;2023-04-20T07:08:25;98132.78;;;12.34;66.85
67397;BME280;57728;50.448;18.824;2023-04-20T07:10:26;98045.75;;;11.85;67.07
67397;BME280;57728;50.448;18.824;2023-04-20T07:12:28;98127.78;;;12.43;66.96
67397;BME280;57728;50.448;18.824;2023-04-20T07:14:29;98091.75;;;12.29;66.87
67397;BME280;57728;50.448;18.824;2023-04-20T07:16:31;98094.69;;;12.39;66.80
67397;BME280;57728;50.448;18.824;2023-04-20T07:18:33;98064.47;;;12.29;66.51
67397;BME280;57728;50.448;18.824;2023-04-20T07:20:34;98057.78;;;12.36;66.34
67397;BME280;57728;50.448;18.824;2023-04-20T07:22:37;98093.75;;;12.74;66.22
67397;BME280;57728;50.448;18.824;2023-04-20T07:24:39;98051.41;;;12.60;65.89
67397;BME280;57728;50.448;18.824;2023-04-20T07:26:40;98122.69;;;13.16;65.69
67397;BME280;57728;50.448;18.824;2023-04-20T07:28:42;98122.44;;;13.34;65.67
67397;BME280;57728;50.448;18.824;2023-04-20T07:30:44;98013.41;;;12.87;65.20
67397;BME280;57728;50.448;18.824;2023-04-20T07:32:45;98128.88;;;13.74;65.08
67397;BME280;57728;50.448;18.824;2023-04-20T07:34:46;98088.94;;;13.73;64.22
67397;BME280;57728;50.448;18.824;2023-04-20T07:36:49;98086.91;;;13.85;63.98
67397;BME280;57728;50.448;18.824;2023-04-20T07:38:50;98113.44;;;14.02;63.46
67397;BME280;57728;50.448;18.824;2023-04-20T07:40:51;98106.69;;;14.09;63.86
67397;BME280;57728;50.448;18.824;2023-04-20T07:42:53;98085.91;;;14.08;63.24
67397;BME280;57728;50.448;18.824;2023-04-20T07:44:54;98119.34;;;14.33;63.20
67397;BME280;57728;50.448;18.824;2023-04-20T07:46:56;98046.22;;;13.89;62.90
67397;BME280;57728;50.448;18.824;2023-04-20T07:48:58;98103.19;;;14.31;62.84
67397;BME280;57728;50.448;18.824;2023-04-20T07:50:59;98092.34;;;14.41;62.78
67397;BME280;57728;50.448;18.824;2023-04-20T07:53:01;98062.41;;;14.35;62.33
67397;BME280;57728;50.448;18.824;2023-04-20T07:55:04;98102.69;;;14.78;61.49
67397;BME280;57728;50.448;18.824;2023-04-20T07:57:07;98088.97;;;14.78;61.51
67397;BME280;57728;50.448;18.824;2023-04-20T07:59:09;98101.97;;;14.88;61.29
67397;BME280;57728;50.448;18.824;2023-04-20T08:01:11;98115.22;;;14.96;61.20
67397;BME280;57728;50.448;18.824;2023-04-20T08:03:13;98084.09;;;14.81;61.14
67397;BME280;57728;50.448;18.824;2023-04-20T08:05:15;98105.47;;;15.06;60.04
67397;BME280;57728;50.448;18.824;2023-04-20T08:07:17;98132.00;;;15.27;59.87
67397;BME280;57728;50.448;18.824;2023-04-20T08:09:19;98114.09;;;15.20;60.25
67397;BME280;57728;50.448;18.824;2023-04-20T08:11:20;98138.19;;;15.45;60.08
67397;BME280;57728;50.448;18.824;2023-04-20T08:13:25;98145.34;;;15.46;59.06
67397;BME280;57728;50.448;18.824;2023-04-20T08:15:27;98090.50;;;15.19;59.26
67397;BME280;57728;50.448;18.824;2023-04-20T08:17:29;98141.00;;;15.50;59.10
67397;BME280;57728;50.448;18.824;2023-04-20T08:19:31;98148.44;;;15.55;59.09
67397;BME280;57728;50.448;18.824;2023-04-20T08:21:33;98142.47;;;15.63;58.63
67397;BME280;57728;50.448;18.824;2023-04-20T08:23:34;98149.16;;;15.72;58.64
67397;BME280;57728;50.448;18.824;2023-04-20T08:25:39;98133.25;;;15.74;57.98
67397;BME280;57728;50.448;18.824;2023-04-20T08:27:40;98126.78;;;15.86;57.88
67397;BME280;57728;50.448;18.824;2023-04-20T08:29:42;98146.19;;;16.11;57.54
67397;BME280;57728;50.448;18.824;2023-04-20T08:31:44;98083.97;;;15.90;57.05
67397;BME280;57728;50.448;18.824;2023-04-20T08:33:45;98122.91;;;16.24;56.05
67397;BME280;57728;50.448;18.824;2023-04-20T08:35:49;98138.94;;;16.43;56.13
67397;BME280;57728;50.448;18.824;2023-04-20T08:37:52;98105.66;;;16.29;56.32
67397;BME280;57728;50.448;18.824;2023-04-20T08:39:53;98139.63;;;16.65;56.06
67397;BME280;57728;50.448;18.824;2023-04-20T08:41:55;98015.44;;;16.05;54.85
67397;BME280;57728;50.448;18.824;2023-04-20T08:43:58;98065.06;;;16.46;54.72
67397;BME280;57728;50.448;18.824;2023-04-20T08:46:00;98129.59;;;17.02;54.84
67397;BME280;57728;50.448;18.824;2023-04-20T08:48:06;98126.34;;;17.15;54.17
67397;BME280;57728;50.448;18.824;2023-04-20T08:50:11;98084.25;;;16.99;54.28
67397;BME280;57728;50.448;18.824;2023-04-20T08:52:12;98087.28;;;17.18;54.07
67397;BME280;57728;50.448;18.824;2023-04-20T08:54:14;98125.84;;;17.60;53.88
67397;BME280;57728;50.448;18.824;2023-04-20T08:56:16;98068.34;;;17.38;53.70
67397;BME280;57728;50.448;18.824;2023-04-20T08:58:18;98075.75;;;17.52;53.55
67397;BME280;57728;50.448;18.824;2023-04-20T09:00:20;98067.78;;;17.72;52.93
67397;BME280;57728;50.448;18.824;2023-04-20T09:02:22;98110.44;;;18.10;52.64
67397;BME280;57728;50.448;18.824;2023-04-20T09:04:25;97973.38;;;17.40;51.00
67397;BME280;57728;50.448;18.824;2023-04-20T09:06:26;98133.00;;;18.33;51.02
67397;BME280;57728;50.448;18.824;2023-04-20T09:08:40;98091.44;;;17.98;51.19
67397;BME280;57728;50.448;18.824;2023-04-20T09:10:43;98144.53;;;18.35;51.09
67397;BME280;57728;50.448;18.824;2023-04-20T09:12:45;98082.34;;;17.98;50.83
67397;BME280;57728;50.448;18.824;2023-04-20T09:14:47;97953.59;;;17.12;51.33
67397;BME280;57728;50.448;18.824;2023-04-20T09:16:51;98140.16;;;18.34;50.74
67397;BME280;57728;50.448;18.824;2023-04-20T09:18:55;98108.78;;;18.14;50.86
67397;BME280;57728;50.448;18.824;2023-04-20T09:21:06;97999.81;;;17.46;51.06
67397;BME280;57728;50.448;18.824;2023-04-20T09:23:17;98135.19;;;18.41;50.40
67397;BME280;57728;50.448;18.824;2023-04-20T09:25:21;98091.72;;;18.07;49.92
67397;BME280;57728;50.448;18.824;2023-04-20T09:27:27;98136.84;;;18.37;49.71
67397;BME280;57728;50.448;18.824;2023-04-20T09:29:28;98134.38;;;18.35;49.99
67397;BME280;57728;50.448;18.824;2023-04-20T09:31:30;98144.53;;;18.40;50.19
67397;BME280;57728;50.448;18.824;2023-04-20T09:33:32;98135.94;;;18.52;50.15
67397;BME280;57728;50.448;18.824;2023-04-20T09:35:35;98142.81;;;18.65;49.84
67397;BME280;57728;50.448;18.824;2023-04-20T09:37:46;98140.00;;;18.80;49.73
67397;BME280;57728;50.448;18.824;2023-04-20T09:39:49;98015.69;;;18.01;48.94
67397;BME280;57728;50.448;18.824;2023-04-20T09:41:51;98142.13;;;19.09;49.94
67397;BME280;57728;50.448;18.824;2023-04-20T09:43:52;98142.47;;;19.42;49.02
67397;BME280;57728;50.448;18.824;2023-04-20T09:45:56;98142.78;;;20.39;48.65
67397;BME280;57728;50.448;18.824;2023-04-20T09:47:58;98080.31;;;21.24;47.81
67397;BME280;57728;50.448;18.824;2023-04-20T09:49:59;98098.66;;;22.52;45.92
67397;BME280;57728;50.448;18.824;2023-04-20T09:52:03;98134.22;;;23.56;44.77
67397;BME280;57728;50.448;18.824;2023-04-20T09:54:05;98128.16;;;24.53;43.26
67397;BME280;57728;50.448;18.824;2023-04-20T09:56:08;98114.19;;;25.43;41.82
67397;BME280;57728;50.448;18.824;2023-04-20T09:58:12;98129.13;;;26.47;40.36
67397;BME280;57728;50.448;18.824;2023-04-20T10:00:14;98118.88;;;27.07;37.89
67397;BME280;57728;50.448;18.824;2023-04-20T10:02:16;98127.44;;;27.02;36.54
67397;BME280;57728;50.448;18.824;2023-04-20T10:04:18;98096.84;;;26.28;36.17
67397;BME280;57728;50.448;18.824;2023-04-20T10:08:40;98067.66;;;24.68;36.25
67397;BME280;57728;50.448;18.824;2023-04-20T10:10:47;98099.94;;;24.69;37.46
67397;BME280;57728;50.448;18.824;2023-04-20T10:12:51;98119.66;;;24.90;36.80
67397;BME280;57728;50.448;18.824;2023-04-20T10:14:54;97995.13;;;23.84;36.85
67397;BME280;57728;50.448;18.824;2023-04-20T10:17:01;98096.81;;;24.08;36.97
67397;BME280;57728;50.448;18.824;2023-04-20T10:19:07;98083.94;;;24.12;37.38
67397;BME280;57728;50.448;18.824;2023-04-20T10:21:09;98094.56;;;24.50;36.73
67397;BME280;57728;50.448;18.824;2023-04-20T10:23:11;98104.50;;;24.65;36.51
67397;BME280;57728;50.448;18.824;2023-04-20T10:25:19;98102.72;;;24.69;36.59
67397;BME280;57728;50.448;18.824;2023-04-20T10:27:23;98115.97;;;24.32;35.75
67397;BME280;57728;50.448;18.824;2023-04-20T10:29:26;98052.38;;;23.40;36.13
67397;BME280;57728;50.448;18.824;2023-04-20T10:31:39;98071.69;;;23.45;36.70
67397;BME280;57728;50.448;18.824;2023-04-20T10:33:52;98058.22;;;23.15;36.43
67397;BME280;57728;50.448;18.824;2023-04-20T10:35:56;97975.31;;;22.36;36.54
67397;BME280;57728;50.448;18.824;2023-04-20T10:37:58;97946.53;;;21.90;37.15
67397;BME280;57728;50.448;18.824;2023-04-20T10:40:01;98043.09;;;22.57;37.43
67397;BME280;57728;50.448;18.824;2023-04-20T10:42:05;98082.63;;;22.77;37.78
67397;BME280;57728;50.448;18.824;2023-04-20T10:44:07;98103.91;;;22.67;37.52
67397;BME280;57728;50.448;18.824;2023-04-20T10:48:19;98073.03;;;21.67;38.61
67397;BME280;57728;50.448;18.824;2023-04-20T10:50:20;98105.00;;;21.40;38.55